Time;durP1;ratioP1;P1;durP2;ratioP2;P2;SDS_P1;SDS_P2;PMS_P1;PMS_P2;Temp;Humidity;BMP_temperature;BMP_pressure;BME280_temperature;BME280_humidity;BME280_pressure;Samples;Min_cycle;Max_cycle;Signal;HPM_P1;HPM_P2
2021/05/08 00:00:06;;;;;;;16.48;12.73;;;;;;;11.78;100.00;98776.36;1729509;80;20993;-48
2021/05/08 00:02:34;;;;;;;16.57;12.43;;;;;;;11.79;100.00;98774.03;1726938;81;21130;-49
2021/05/08 00:09:08;;;;;;;16.67;13.72;;;;;;;11.79;100.00;98764.58;1746568;79;22872;-47
2021/05/08 00:11:36;;;;;;;15.78;12.58;;;;;;;11.75;100.00;98764.41;1731990;80;20993;-47
2021/05/08 00:14:05;;;;;;;14.05;12.50;;;;;;;11.74;100.00;98755.94;1723993;81;21275;-48
2021/05/08 00:16:32;;;;;;;13.98;12.07;;;;;;;11.77;100.00;98761.10;1725348;81;21712;-48
2021/05/08 00:19:01;;;;;;;14.43;12.03;;;;;;;11.76;100.00;98737.77;1721220;81;21057;-49
2021/05/08 00:21:29;;;;;;;16.65;13.75;;;;;;;11.75;100.00;98732.86;1724487;81;21010;-48
2021/05/08 00:23:58;;;;;;;17.23;13.48;;;;;;;11.75;100.00;98732.86;1720051;82;20982;-48
2021/05/08 00:26:25;;;;;;;17.77;13.80;;;;;;;11.75;100.00;98727.95;1726256;80;22081;-48
2021/05/08 00:28:56;;;;;;;19.32;15.75;;;;;;;11.74;100.00;98737.03;1721635;82;21591;-48
2021/05/08 00:31:24;;;;;;;15.93;13.80;;;;;;;11.75;100.00;98737.40;1721757;81;20973;-48
2021/05/08 00:33:52;;;;;;;19.48;14.63;;;;;;;11.76;100.00;98752.13;1720545;81;21594;-48
2021/05/08 00:36:20;;;;;;;20.90;15.70;;;;;;;11.76;100.00;98751.28;1721269;81;20990;-51
2021/05/08 00:38:49;;;;;;;20.82;15.70;;;;;;;11.75;100.00;98756.31;1728439;82;21144;-51
2021/05/08 00:41:17;;;;;;;18.73;14.93;;;;;;;11.75;100.00;98756.31;1729352;80;21136;-49
2021/05/08 00:43:45;;;;;;;16.57;14.47;;;;;;;11.72;100.00;98752.48;1726003;81;21526;-48
2021/05/08 00:46:14;;;;;;;23.35;15.80;;;;;;;11.71;100.00;98754.79;1735233;80;21166;-48
2021/05/08 00:48:42;;;;;;;19.23;15.78;;;;;;;11.67;100.00;98738.45;1695305;82;21104;-48
2021/05/08 00:51:10;;;;;;;20.20;16.17;;;;;;;11.69;100.00;98736.48;1693163;82;22298;-48
2021/05/08 00:53:38;;;;;;;17.48;14.28;;;;;;;11.69;100.00;98733.80;1700419;82;21132;-47
2021/05/08 00:56:07;;;;;;;16.52;14.20;;;;;;;11.69;100.00;98729.73;1720729;81;21010;-48
2021/05/08 00:58:35;;;;;;;19.37;13.65;;;;;;;11.68;100.00;98733.42;1723721;82;21156;-48
2021/05/08 01:01:03;;;;;;;15.70;12.80;;;;;;;11.64;100.00;98720.61;1723191;81;21125;-47
2021/05/08 01:03:32;;;;;;;16.25;13.65;;;;;;;11.64;100.00;98720.61;1726717;81;21363;-47
2021/05/08 01:06:01;;;;;;;16.23;13.38;;;;;;;11.63;100.00;98715.33;1723029;80;21013;-48
2021/05/08 01:08:31;;;;;;;17.25;13.45;;;;;;;11.62;100.00;98717.16;1727349;81;21124;-49
2021/05/08 01:10:59;;;;;;;18.98;13.62;;;;;;;11.62;100.00;98706.85;1721848;82;21025;-48
2021/05/08 01:13:29;;;;;;;15.60;13.13;;;;;;;11.61;100.00;98714.09;1723630;81;20983;-48
2021/05/08 01:15:57;;;;;;;16.42;12.85;;;;;;;11.61;100.00;98717.25;1722147;81;21945;-46
2021/05/08 01:18:26;;;;;;;15.68;13.20;;;;;;;11.61;100.00;98729.41;1692174;82;21121;-46
2021/05/08 01:20:54;;;;;;;16.20;13.30;;;;;;;11.61;100.00;98725.35;1693739;82;21652;-48
2021/05/08 01:23:22;;;;;;;18.80;14.10;;;;;;;11.61;100.00;98725.35;1719848;81;21191;-48
2021/05/08 01:25:50;;;;;;;18.00;13.68;;;;;;;11.64;100.00;98734.60;1719891;82;21561;-49
2021/05/08 01:28:20;;;;;;;17.95;14.58;;;;;;;11.64;100.00;98735.95;1697678;82;20983;-47
2021/05/08 01:30:50;;;;;;;18.32;14.28;;;;;;;11.65;100.00;98743.08;1724621;81;21006;-46
2021/05/08 01:33:18;;;;;;;17.73;14.23;;;;;;;11.66;100.00;98744.80;1721165;81;20990;-49
2021/05/08 01:35:46;;;;;;;18.60;14.98;;;;;;;11.65;100.00;98745.77;1720182;81;21085;-47
2021/05/08 01:38:14;;;;;;;17.48;15.32;;;;;;;11.66;100.00;98742.09;1725502;81;20982;-48
2021/05/08 01:40:42;;;;;;;21.25;15.72;;;;;;;11.66;100.00;98748.36;1722343;81;22071;-48
2021/05/08 01:43:26;;;;;;;16.48;14.65;;;;;;;11.69;100.00;98739.19;1804098;76;22211;-46
2021/05/08 01:45:55;;;;;;;18.90;15.65;;;;;;;11.62;100.00;98741.47;1805005;79;20967;-46
2021/05/08 01:48:23;;;;;;;19.07;15.20;;;;;;;11.62;100.00;98731.16;1805544;78;21932;-47
2021/05/08 01:50:51;;;;;;;17.92;15.23;;;;;;;11.62;100.00;98731.16;1805602;79;21009;-47
2021/05/08 01:53:20;;;;;;;20.10;14.98;;;;;;;11.61;100.00;98737.50;1805138;78;20994;-49
2021/05/08 01:55:49;;;;;;;17.73;15.38;;;;;;;11.59;100.00;98735.41;1762424;79;21507;-48
2021/05/08 01:58:22;;;;;;;19.67;15.38;;;;;;;11.60;100.00;98742.53;1804064;77;20961;-48
2021/05/08 02:00:59;;;;;;;19.75;15.83;;;;;;;11.65;100.00;98743.08;1842454;76;23240;-48
2021/05/08 02:03:29;;;;;;;19.82;16.25;;;;;;;11.61;100.00;98748.30;1803306;77;21382;-47
2021/05/08 02:05:59;;;;;;;19.48;15.88;;;;;;;11.60;100.00;98741.19;1768531;78;21459;-48
2021/05/08 02:08:42;;;;;;;18.40;15.40;;;;;;;11.64;100.00;98734.11;1854802;75;22578;-48
2021/05/08 02:11:12;;;;;;;18.37;15.30;;;;;;;11.59;100.00;98735.41;1828391;77;21552;-48
2021/05/08 02:13:41;;;;;;;20.12;15.55;;;;;;;11.57;100.00;98727.92;1824962;77;21349;-49
2021/05/08 02:16:10;;;;;;;21.27;15.90;;;;;;;11.57;100.00;98727.92;1824054;77;21056;-48
2021/05/08 02:18:38;;;;;;;20.40;16.80;;;;;;;11.60;100.00;98743.39;1823729;77;21040;-48
2021/05/08 02:21:07;;;;;;;19.17;16.05;;;;;;;11.62;100.00;98741.96;1823506;77;21103;-47
2021/05/08 02:23:36;;;;;;;20.37;16.57;;;;;;;11.62;100.00;98737.42;1824635;78;21533;-49
2021/05/08 02:26:04;;;;;;;19.35;16.48;;;;;;;11.61;100.00;98744.26;1824902;77;21360;-48
2021/05/08 02:28:32;;;;;;;19.82;16.02;;;;;;;11.59;100.00;98742.16;1823677;78;20985;-50
2021/05/08 02:31:00;;;;;;;20.23;16.52;;;;;;;11.59;100.00;98748.91;1824804;77;21644;-47
2021/05/08 02:33:30;;;;;;;19.00;16.20;;;;;;;11.61;100.00;98752.36;1824641;77;21081;-48
2021/05/08 02:35:59;;;;;;;24.95;16.80;;;;;;;11.62;100.00;98754.11;1824541;78;20926;-47
2021/05/08 02:38:27;;;;;;;18.45;15.72;;;;;;;11.62;100.00;98752.27;1823619;78;21557;-47
2021/05/08 02:40:55;;;;;;;19.30;16.23;;;;;;;11.61;100.00;98741.55;1824278;77;21004;-48
2021/05/08 02:43:25;;;;;;;17.87;15.65;;;;;;;11.59;100.00;98743.52;1819275;77;21025;-47
2021/05/08 02:46:00;;;;;;;21.07;16.23;;;;;;;11.58;100.00;98738.60;1823610;77;20977;-49
2021/05/08 02:48:28;;;;;;;21.70;15.43;;;;;;;11.58;100.00;98741.79;1823063;77;21628;-48
2021/05/08 02:50:57;;;;;;;17.70;15.18;;;;;;;11.54;100.00;98746.05;1824779;78;21382;-48
2021/05/08 02:53:26;;;;;;;16.52;14.43;;;;;;;11.51;100.00;98739.53;1823253;77;21013;-48
2021/05/08 02:55:56;;;;;;;15.83;12.88;;;;;;;11.48;100.00;98734.33;1824239;78;21024;-47
2021/05/08 02:58:25;;;;;;;18.67;12.53;;;;;;;11.46;100.00;98736.28;1823679;78;20999;-48
2021/05/08 03:00:54;;;;;;;17.98;12.03;;;;;;;11.42;100.00;98730.72;1824349;78;21517;-48
2021/05/08 03:03:24;;;;;;;13.68;12.18;;;;;;;11.42;100.00;98742.86;1824776;77;20985;-47
2021/05/08 03:05:52;;;;;;;12.93;11.03;;;;;;;11.38;100.00;98738.64;1824237;77;21652;-48
2021/05/08 03:08:30;;;;;;;15.20;11.43;;;;;;;11.45;100.00;98741.31;1810190;78;22735;-47
2021/05/08 03:11:00;;;;;;;15.80;12.03;;;;;;;11.40;100.00;98740.77;1766518;78;20910;-47
2021/05/08 03:13:30;;;;;;;13.10;11.73;;;;;;;11.41;100.00;98742.49;1755103;80;21454;-49
2021/05/08 03:15:59;;;;;;;14.20;11.38;;;;;;;11.40;100.00;98723.22;1749665;79;21549;-48
2021/05/08 03:18:27;;;;;;;12.85;10.93;;;;;;;11.39;100.00;98707.97;1751178;80;21005;-48
2021/05/08 03:20:55;;;;;;;17.75;11.78;;;;;;;11.39;100.00;98697.17;1753429;79;21002;-48
2021/05/08 03:23:23;;;;;;;13.13;11.03;;;;;;;11.40;100.00;98709.72;1759892;80;21416;-48
2021/05/08 03:25:52;;;;;;;15.15;11.33;;;;;;;11.40;100.00;98725.92;1718085;80;21641;-48
2021/05/08 03:28:20;;;;;;;16.50;11.18;;;;;;;11.40;100.00;98736.72;1748161;79;20968;-49
2021/05/08 03:30:48;;;;;;;13.10;10.80;;;;;;;11.40;100.00;98732.67;1760054;79;20973;-47
2021/05/08 03:33:16;;;;;;;12.55;10.78;;;;;;;11.41;100.00;98741.14;1751360;79;20986;-47
2021/05/08 03:35:44;;;;;;;13.75;11.18;;;;;;;11.42;100.00;98746.91;1748606;79;21009;-46
2021/05/08 03:38:12;;;;;;;13.62;11.10;;;;;;;11.44;100.00;98751.70;1753567;79;21367;-48
2021/05/08 03:40:40;;;;;;;14.78;10.88;;;;;;;11.45;100.00;98744.02;1747773;80;21372;-48
2021/05/08 03:43:08;;;;;;;12.33;11.03;;;;;;;11.45;100.00;98738.61;1749905;80;20990;-49
2021/05/08 03:45:36;;;;;;;16.42;10.95;;;;;;;11.46;100.00;98738.98;1747517;79;21005;-48
2021/05/08 03:48:05;;;;;;;14.43;10.72;;;;;;;11.47;100.00;98726.34;1748501;80;21533;-49
2021/05/08 03:50:34;;;;;;;12.40;11.08;;;;;;;11.49;100.00;98727.95;1747550;80;21367;-48
2021/05/08 03:53:02;;;;;;;15.15;11.43;;;;;;;11.50;100.00;98728.36;1749710;79;21014;-47
2021/05/08 03:55:34;;;;;;;15.32;12.10;;;;;;;11.53;100.00;98734.88;1723926;80;21254;-47
2021/05/08 03:58:00;;;;;;;12.20;10.75;;;;;;;11.53;100.00;98734.88;1748877;79;21580;-47
2021/05/08 04:00:28;;;;;;;14.15;11.22;;;;;;;11.54;100.00;98732.55;1761168;79;21002;-48
2021/05/08 04:02:56;;;;;;;14.55;11.15;;;;;;;11.57;100.00;98729.27;1751158;79;22082;-48
2021/05/08 04:05:24;;;;;;;12.33;10.98;;;;;;;11.55;100.00;98730.22;1750971;80;21006;-48
2021/05/08 04:07:51;;;;;;;12.05;10.85;;;;;;;11.57;100.00;98726.56;1746820;79;21203;-49
2021/05/08 04:10:19;;;;;;;14.78;11.63;;;;;;;11.58;100.00;98721.54;1757330;81;21643;-49
2021/05/08 04:12:49;;;;;;;13.00;11.08;;;;;;;11.61;100.00;98742.45;1747047;81;21525;-48
2021/05/08 04:15:17;;;;;;;12.25;11.03;;;;;;;11.67;100.00;98746.55;1748078;81;21375;-49
2021/05/08 04:17:45;;;;;;;12.93;11.03;;;;;;;11.67;100.00;98746.55;1748373;79;21581;-51
2021/05/08 04:20:13;;;;;;;15.88;11.85;;;;;;;11.67;100.00;98750.60;1745487;81;21562;-50
2021/05/08 04:22:42;;;;;;;13.22;11.48;;;;;;;11.71;100.00;98755.65;1748490;81;21072;-50
2021/05/08 04:25:10;;;;;;;15.20;11.73;;;;;;;11.75;100.00;98760.36;1741765;80;21160;-49
2021/05/08 04:27:38;;;;;;;14.20;11.80;;;;;;;11.77;100.00;98758.40;1743611;81;21366;-49
2021/05/08 04:30:07;;;;;;;13.05;11.05;;;;;;;11.80;100.00;98755.49;1740815;80;21716;-49
2021/05/08 04:32:35;;;;;;;14.15;11.95;;;;;;;11.82;100.00;98752.22;1744128;80;21135;-49
2021/05/08 04:35:04;;;;;;;12.37;11.10;;;;;;;11.81;100.00;98753.16;1742324;80;20946;-49
2021/05/08 04:37:32;;;;;;;11.75;10.58;;;;;;;11.80;100.00;98756.36;1743031;80;21140;-49
2021/05/08 04:40:00;;;;;;;11.55;10.35;;;;;;;11.80;100.00;98763.59;1743658;81;22006;-48
2021/05/08 04:42:28;;;;;;;12.75;10.80;;;;;;;11.81;100.00;98768.02;1744057;80;21622;-48
2021/05/08 04:44:56;;;;;;;15.80;10.70;;;;;;;11.81;100.00;98762.62;1748220;80;21132;-49
2021/05/08 04:47:25;;;;;;;13.03;10.35;;;;;;;11.81;100.00;98759.91;1741486;80;21557;-49
2021/05/08 04:49:57;;;;;;;15.63;10.93;;;;;;;11.83;100.00;98766.13;1744459;81;21132;-49
2021/05/08 04:52:23;;;;;;;14.58;10.60;;;;;;;11.82;100.00;98758.97;1743029;80;21442;-49
2021/05/08 04:54:51;;;;;;;15.85;11.90;;;;;;;11.84;100.00;98775.95;1744390;80;20982;-49
2021/05/08 04:57:19;;;;;;;16.55;12.23;;;;;;;11.85;100.00;98784.92;1742482;81;21057;-49
2021/05/08 04:59:48;;;;;;;13.40;11.50;;;;;;;11.85;100.00;98781.73;1746185;81;21009;-49
2021/05/08 05:02:16;;;;;;;17.77;11.83;;;;;;;11.84;100.00;98795.35;1743847;81;20979;-49
2021/05/08 05:04:44;;;;;;;13.00;11.65;;;;;;;11.82;100.00;98787.33;1742895;81;22356;-49
2021/05/08 05:07:12;;;;;;;13.53;11.73;;;;;;;11.80;100.00;98786.56;1746608;79;21263;-49
2021/05/08 05:09:40;;;;;;;14.28;12.40;;;;;;;11.79;100.00;98793.80;1744773;81;20982;-49
2021/05/08 05:12:10;;;;;;;18.07;12.25;;;;;;;11.80;100.00;98794.66;1744289;80;21618;-50
2021/05/08 05:14:39;;;;;;;17.73;12.85;;;;;;;11.80;100.00;98804.98;1743864;81;21018;-49
2021/05/08 05:17:07;;;;;;;13.93;11.12;;;;;;;11.80;100.00;98806.81;1730735;81;21377;-49
2021/05/08 05:19:36;;;;;;;15.38;12.33;;;;;;;11.78;100.00;98804.72;1749502;79;21196;-51
2021/05/08 05:22:04;;;;;;;13.72;11.70;;;;;;;11.76;100.00;98803.95;1748054;80;21589;-49
2021/05/08 05:24:31;;;;;;;13.38;11.10;;;;;;;11.74;100.00;98799.15;1747915;81;21208;-49
2021/05/08 05:26:59;;;;;;;18.42;12.00;;;;;;;11.71;100.00;98791.25;1743115;80;21088;-50
2021/05/08 05:29:27;;;;;;;14.93;11.63;;;;;;;11.71;100.00;98791.25;1748188;81;21621;-52
2021/05/08 05:31:55;;;;;;;14.03;11.30;;;;;;;11.71;100.00;98805.62;1749129;79;21021;-53
2021/05/08 05:34:24;;;;;;;15.38;12.23;;;;;;;11.71;100.00;98804.75;1748497;79;21526;-51
2021/05/08 05:36:53;;;;;;;18.17;13.32;;;;;;;11.69;100.00;98800.82;1743903;81;21029;-53
2021/05/08 05:39:20;;;;;;;15.43;12.68;;;;;;;11.72;100.00;98794.36;1748100;80;21055;-52
2021/05/08 05:41:48;;;;;;;15.88;12.43;;;;;;;11.74;100.00;98799.15;1750923;79;21373;-52
2021/05/08 05:44:16;;;;;;;14.68;11.73;;;;;;;11.72;100.00;98804.67;1742586;79;21562;-53
2021/05/08 05:46:44;;;;;;;17.17;12.30;;;;;;;11.79;100.00;98814.06;1748494;81;21128;-52
2021/05/08 05:49:13;;;;;;;11.57;10.28;;;;;;;11.82;100.00;98821.10;1745490;81;21163;-51
2021/05/08 05:51:40;;;;;;;11.03;9.73;;;;;;;11.84;100.00;98818.31;1744111;79;21124;-54
2021/05/08 05:54:08;;;;;;;12.55;10.68;;;;;;;11.85;100.00;98819.55;1743810;81;21144;-55
2021/05/08 05:56:36;;;;;;;14.87;9.55;;;;;;;11.86;100.00;98806.91;1744925;81;20994;-50
2021/05/08 05:59:04;;;;;;;9.08;8.13;;;;;;;11.86;100.00;98816.36;1744023;79;21180;-51
2021/05/08 06:01:32;;;;;;;10.35;8.33;;;;;;;11.84;100.00;98821.02;1744108;80;21575;-51
2021/05/08 06:04:02;;;;;;;8.43;6.47;;;;;;;11.82;100.00;98813.48;1745516;79;21570;-51
2021/05/08 06:06:32;;;;;;;8.13;6.55;;;;;;;11.77;100.00;98817.83;1745886;79;21373;-51
2021/05/08 06:09:01;;;;;;;7.33;6.33;;;;;;;11.72;100.00;98815.47;1741570;80;21040;-53
2021/05/08 06:11:28;;;;;;;6.40;5.37;;;;;;;11.72;99.44;98817.31;1697386;83;21014;-51
2021/05/08 06:13:56;;;;;;;6.15;4.87;;;;;;;11.71;98.83;98823.66;1705851;82;21124;-53
2021/05/08 06:16:25;;;;;;;8.05;5.60;;;;;;;11.70;98.06;98828.69;1684116;83;21137;-52
2021/05/08 06:18:53;;;;;;;6.17;5.50;;;;;;;11.70;97.99;98832.74;1739681;81;21389;-51
2021/05/08 06:21:21;;;;;;;6.87;6.15;;;;;;;11.67;97.36;98838.38;1751175;81;21124;-52
2021/05/08 06:23:50;;;;;;;7.08;6.33;;;;;;;11.65;97.79;98830.36;1739706;79;21154;-55
2021/05/08 06:26:17;;;;;;;6.60;5.33;;;;;;;11.66;98.45;98827.16;1741760;81;21883;-53
2021/05/08 06:28:45;;;;;;;6.65;5.70;;;;;;;11.68;98.65;98826.59;1739220;79;21120;-56
2021/05/08 06:31:13;;;;;;;7.28;5.80;;;;;;;11.65;97.81;98827.66;1737844;79;22090;-57
2021/05/08 06:33:41;;;;;;;5.67;5.08;;;;;;;11.59;97.26;98833.97;1737009;81;21780;-58
2021/05/08 06:36:09;;;;;;;8.63;6.05;;;;;;;11.57;97.63;98846.24;1742775;81;21152;-56
2021/05/08 06:38:37;;;;;;;6.83;5.87;;;;;;;11.50;98.27;98832.30;1739213;79;21145;-56
2021/05/08 06:41:05;;;;;;;7.95;5.85;;;;;;;11.46;98.76;98838.88;1737400;79;21116;-51
2021/05/08 06:43:33;;;;;;;7.03;5.10;;;;;;;11.41;99.53;98851.83;1738135;79;21455;-58
2021/05/08 06:46:02;;;;;;;5.08;4.58;;;;;;;11.35;99.71;98846.84;1737042;81;20994;-56
2021/05/08 06:48:30;;;;;;;5.70;5.00;;;;;;;11.27;99.79;98851.88;1736074;80;20951;-59
2021/05/08 06:50:58;;;;;;;4.40;4.00;;;;;;;11.12;100.00;98861.00;1737727;81;21101;-56
2021/05/08 06:53:26;;;;;;;5.55;4.25;;;;;;;11.12;100.00;98861.00;1738630;80;21113;-57
2021/05/08 06:55:54;;;;;;;5.60;3.67;;;;;;;10.91;100.00;98868.69;1737428;79;21132;-57
2021/05/08 06:58:22;;;;;;;3.67;3.37;;;;;;;10.91;100.00;98868.69;1739261;81;21002;-57
2021/05/08 07:00:50;;;;;;;4.67;4.10;;;;;;;10.80;100.00;98874.78;1739528;79;21049;-55
2021/05/08 07:03:20;;;;;;;4.92;4.42;;;;;;;10.69;100.00;98882.71;1736716;79;21105;-57
2021/05/08 07:05:48;;;;;;;4.75;4.03;;;;;;;10.59;100.00;98876.17;1736622;81;21559;-59
2021/05/08 07:08:16;;;;;;;5.28;4.72;;;;;;;10.48;100.00;98888.51;1737601;80;21274;-57
2021/05/08 07:10:48;;;;;;;7.37;5.00;;;;;;;10.48;100.00;98888.51;1737060;80;21149;-56
2021/05/08 07:13:24;;;;;;;5.62;5.05;;;;;;;10.51;100.00;98883.91;1804405;76;22463;-57
2021/05/08 07:15:56;;;;;;;5.35;4.72;;;;;;;10.46;100.00;98884.20;1780767;79;20962;-57
2021/05/08 07:18:25;;;;;;;5.72;5.10;;;;;;;10.46;100.00;98896.33;1772701;79;21194;-58
2021/05/08 07:20:53;;;;;;;6.47;5.85;;;;;;;10.46;100.00;98897.19;1773069;79;20974;-59
2021/05/08 07:23:21;;;;;;;8.10;6.08;;;;;;;10.48;100.00;98904.69;1774019;80;21542;-60
2021/05/08 07:25:49;;;;;;;7.95;6.17;;;;;;;10.41;100.00;98908.74;1772785;80;21538;-58
2021/05/08 07:28:20;;;;;;;11.30;6.62;;;;;;;10.41;100.00;98908.74;1773896;80;20970;-59
2021/05/08 07:30:49;;;;;;;8.15;7.10;;;;;;;10.35;100.00;98906.92;1772004;79;21268;-59
2021/05/08 07:33:18;;;;;;;7.17;6.47;;;;;;;10.24;100.00;98915.67;1772502;80;21002;-56
2021/05/08 07:35:46;;;;;;;7.80;7.00;;;;;;;10.17;100.00;98922.35;1772729;79;21562;-60
2021/05/08 07:38:14;;;;;;;8.08;6.20;;;;;;;10.09;100.00;98924.67;1773829;79;21104;-59
2021/05/08 07:40:42;;;;;;;7.80;6.05;;;;;;;9.98;100.00;98949.09;1773280;79;21534;-56
2021/05/08 07:43:10;;;;;;;6.00;5.35;;;;;;;9.84;100.00;98951.73;1774005;80;21350;-55
2021/05/08 07:45:39;;;;;;;4.95;4.30;;;;;;;9.75;100.00;98963.08;1769119;79;21115;-56
2021/05/08 07:48:08;;;;;;;5.12;4.62;;;;;;;9.66;100.00;98966.31;1771551;79;21558;-61
2021/05/08 07:50:36;;;;;;;5.75;4.83;;;;;;;9.61;100.00;98979.17;1773324;80;21136;-57
2021/05/08 07:53:04;;;;;;;4.97;4.47;;;;;;;9.59;100.00;98971.68;1773243;79;20974;-57
2021/05/08 07:55:32;;;;;;;8.90;5.10;;;;;;;9.59;100.00;98978.41;1774748;79;22240;-60
2021/05/08 07:58:01;;;;;;;4.80;4.15;;;;;;;9.59;100.00;98989.17;1772134;79;20969;-57
2021/05/08 08:00:31;;;;;;;5.35;4.83;;;;;;;9.45;100.00;98998.91;1773579;79;21115;-56
2021/05/08 08:02:59;;;;;;;5.37;4.87;;;;;;;9.37;100.00;99006.53;1772510;79;21495;-54
2021/05/08 08:05:27;;;;;;;5.80;5.20;;;;;;;9.25;100.00;99023.87;1773114;79;21140;-58
2021/05/08 08:07:55;;;;;;;5.83;5.15;;;;;;;9.10;100.00;99013.48;1768568;79;21383;-62
2021/05/08 08:10:23;;;;;;;6.10;5.50;;;;;;;9.03;100.00;99024.20;1772571;80;20982;-54
2021/05/08 08:12:52;;;;;;;6.83;5.55;;;;;;;9.00;100.00;99017.64;1766570;79;21618;-55
2021/05/08 08:15:20;;;;;;;9.25;6.05;;;;;;;9.02;100.00;99023.82;1762308;80;21400;-55
2021/05/08 08:17:48;;;;;;;7.70;6.42;;;;;;;8.99;100.00;99021.28;1761387;79;21107;-55
2021/05/08 08:20:16;;;;;;;7.60;5.95;;;;;;;9.00;100.00;99017.64;1761131;80;21345;-57
2021/05/08 08:22:45;;;;;;;5.72;4.53;;;;;;;9.03;100.00;99039.00;1762382;79;21097;-52
2021/05/08 08:25:14;;;;;;;6.03;5.37;;;;;;;9.01;100.00;99040.91;1761714;81;20951;-55
2021/05/08 08:27:42;;;;;;;8.15;5.33;;;;;;;8.96;97.89;99051.05;1760933;81;20975;-57
2021/05/08 08:30:12;;;;;;;6.85;5.10;;;;;;;8.93;96.39;99036.80;1762241;79;21129;-54
2021/05/08 08:32:40;;;;;;;7.37;5.08;;;;;;;8.96;96.63;99038.95;1760624;79;21369;-52
2021/05/08 08:35:09;;;;;;;6.25;4.80;;;;;;;8.99;96.17;99036.95;1761026;81;21009;-56
2021/05/08 08:37:37;;;;;;;6.58;4.33;;;;;;;9.04;95.85;99040.73;1760251;79;21538;-54
2021/05/08 08:40:06;;;;;;;5.62;4.10;;;;;;;9.04;93.37;99048.31;1762697;79;21022;-56
2021/05/08 08:42:34;;;;;;;3.60;3.30;;;;;;;9.05;92.90;99051.87;1761888;79;20991;-54
2021/05/08 08:45:05;;;;;;;4.83;3.02;;;;;;;9.03;91.91;99065.89;1761022;79;21431;-57
2021/05/08 08:47:32;;;;;;;4.45;2.98;;;;;;;8.97;89.47;99067.58;1761561;80;21640;-56
2021/05/08 08:50:11;;;;;;;4.35;3.70;;;;;;;8.89;88.65;99059.47;1740857;79;21129;-57
2021/05/08 08:52:39;;;;;;;5.90;3.02;;;;;;;8.86;90.02;99061.44;1762477;79;21617;-52
2021/05/08 08:55:08;;;;;;;4.25;3.50;;;;;;;8.88;90.42;99078.34;1762707;79;21121;-53
2021/05/08 08:57:42;;;;;;;4.50;3.33;;;;;;;8.82;90.06;99081.38;1763076;80;21644;-52
2021/05/08 09:00:14;;;;;;;6.80;4.42;;;;;;;8.79;90.11;99097.65;1763069;79;21478;-57
2021/05/08 09:02:48;;;;;;;5.75;5.12;;;;;;;8.69;89.99;99081.17;1761504;81;21128;-57
2021/05/08 09:05:23;;;;;;;10.25;3.55;;;;;;;8.62;91.06;99085.11;1761375;80;21101;-58
2021/05/08 09:07:52;;;;;;;6.20;3.27;;;;;;;8.58;91.17;99088.94;1745198;81;21018;-57
2021/05/08 09:10:28;;;;;;;4.90;3.20;;;;;;;8.56;91.58;99088.13;1762049;81;21559;-57
2021/05/08 09:13:00;;;;;;;3.80;3.42;;;;;;;8.57;90.96;99095.23;1762403;80;21200;-57
2021/05/08 09:15:42;;;;;;;5.28;3.77;;;;;;;8.59;91.26;99094.70;1761196;80;20989;-57
2021/05/08 09:18:34;;;;;;;4.17;3.72;;;;;;;8.63;90.63;99111.06;1723215;81;21116;-57
2021/05/08 09:21:04;;;;;;;6.97;3.35;;;;;;;8.61;90.00;99112.95;1705316;82;20990;-58
2021/05/08 09:23:37;;;;;;;4.83;3.72;;;;;;;8.62;89.78;99114.68;1705292;83;22304;-61
2021/05/08 09:26:08;;;;;;;4.28;3.12;;;;;;;8.61;90.27;99121.01;1760423;79;21403;-57
2021/05/08 09:28:40;;;;;;;4.72;3.47;;;;;;;8.60;90.40;99108.53;1760781;80;21447;-57
2021/05/08 09:31:13;;;;;;;3.75;3.12;;;;;;;8.58;90.34;99115.34;1761097;79;21547;-57
2021/05/08 09:33:53;;;;;;;5.22;4.17;;;;;;;8.57;90.17;99107.33;1760471;81;21538;-56
2021/05/08 09:36:22;;;;;;;4.33;3.37;;;;;;;8.55;89.82;99114.61;1762172;79;22127;-58
2021/05/08 09:38:50;;;;;;;7.58;4.00;;;;;;;8.53;90.18;99117.87;1759211;79;21014;-54
2021/05/08 09:41:19;;;;;;;4.62;3.67;;;;;;;8.53;90.03;99128.14;1758513;81;20979;-54
2021/05/08 09:43:48;;;;;;;6.37;3.72;;;;;;;8.56;90.01;99131.13;1760391;81;21121;-56
2021/05/08 09:46:25;;;;;;;5.10;3.55;;;;;;;8.59;90.00;99136.36;1762935;79;21032;-55
2021/05/08 09:49:11;;;;;;;3.67;2.75;;;;;;;8.64;90.44;99146.39;1762581;79;21379;-55
2021/05/08 09:51:39;;;;;;;3.55;3.25;;;;;;;8.70;89.83;99144.73;1761929;81;21504;-58
2021/05/08 09:54:14;;;;;;;3.45;2.95;;;;;;;8.73;88.95;99139.17;1761521;79;21419;-58
2021/05/08 09:56:44;;;;;;;3.10;2.70;;;;;;;8.78;88.45;99129.05;1761528;79;20970;-58
2021/05/08 09:59:34;;;;;;;3.85;2.77;;;;;;;8.88;88.65;99143.74;1760180;79;21120;-59
2021/05/08 10:02:09;;;;;;;6.92;2.98;;;;;;;8.95;87.32;99144.76;1760672;79;21378;-60
2021/05/08 10:07:24;;;;;;;4.00;2.47;;;;;;;9.16;86.89;99139.56;1786241;78;22599;-56
2021/05/08 10:09:59;;;;;;;2.95;2.65;;;;;;;9.15;84.97;99162.05;1764302;78;21116;-56
2021/05/08 10:12:28;;;;;;;6.78;2.60;;;;;;;9.16;84.86;99147.64;1765006;79;22253;-57
2021/05/08 10:14:58;;;;;;;3.52;2.98;;;;;;;9.18;85.11;99167.27;1768762;79;21038;-57
2021/05/08 10:17:28;;;;;;;2.33;2.00;;;;;;;9.20;84.85;99150.56;1759600;79;21057;-57
2021/05/08 10:20:11;;;;;;;2.45;2.22;;;;;;;9.18;83.28;99163.23;1763801;79;20981;-59
2021/05/08 10:22:49;;;;;;;3.17;2.35;;;;;;;9.18;83.59;99194.17;1759281;79;20978;-62
2021/05/08 10:25:17;;;;;;;3.35;2.60;;;;;;;9.16;83.81;99177.23;1762992;79;22127;-57
2021/05/08 10:27:45;;;;;;;2.47;2.17;;;;;;;9.14;84.22;99180.48;1758761;79;21029;-55
2021/05/08 10:30:17;;;;;;;4.92;2.60;;;;;;;9.11;83.27;99180.67;1761654;79;21016;-59
2021/05/08 10:32:46;;;;;;;3.40;2.27;;;;;;;9.10;83.64;99185.63;1766058;79;21593;-57
2021/05/08 10:35:15;;;;;;;4.97;2.92;;;;;;;9.13;84.20;99196.23;1764345;79;21160;-57
2021/05/08 10:38:13;;;;;;;5.42;2.35;;;;;;;9.16;84.27;99210.86;1764377;79;21205;-55
2021/05/08 10:41:02;;;;;;;6.12;2.05;;;;;;;9.21;83.03;99187.75;1765871;79;20970;-56
2021/05/08 10:43:57;;;;;;;5.50;2.30;;;;;;;9.26;83.32;99202.69;1765588;79;21191;-57
2021/05/08 10:46:27;;;;;;;5.03;2.72;;;;;;;9.27;82.37;99206.25;1764584;79;21588;-50
2021/05/08 10:49:13;;;;;;;4.03;2.62;;;;;;;9.27;82.60;99203.11;1770066;79;21111;-52
2021/05/08 10:51:56;;;;;;;2.55;2.00;;;;;;;9.27;82.92;99201.77;1763535;79;20977;-50
2021/05/08 10:54:44;;;;;;;2.62;2.27;;;;;;;9.27;83.17;99193.69;1762186;79;25108;-50
2021/05/08 10:57:24;;;;;;;4.62;2.12;;;;;;;9.34;83.85;99200.47;1757954;79;21450;-51
2021/05/08 11:00:10;;;;;;;3.02;1.95;;;;;;;9.43;82.73;99204.02;1759829;79;21616;-48
2021/05/08 11:02:47;;;;;;;1.92;1.72;;;;;;;9.54;82.48;99201.22;1763277;79;21192;-50
2021/05/08 11:05:31;;;;;;;3.05;1.92;;;;;;;9.65;80.76;99212.27;1757136;79;21379;-50
2021/05/08 11:07:59;;;;;;;2.27;1.90;;;;;;;9.61;79.86;99207.52;1759846;79;21586;-50
2021/05/08 11:10:37;;;;;;;3.85;2.17;;;;;;;9.53;82.50;99212.91;1760273;79;21025;-50
2021/05/08 11:13:16;;;;;;;2.60;1.90;;;;;;;9.30;87.52;99215.03;1762275;79;21593;-50
2021/05/08 11:15:56;;;;;;;2.30;1.40;;;;;;;9.04;89.69;99229.86;1765857;79;20986;-50
2021/05/08 11:18:37;;;;;;;3.58;1.85;;;;;;;8.74;91.55;99247.13;1765534;79;21474;-50
2021/05/08 11:21:12;;;;;;;;;;;;;;;8.52;93.77;99253.16;1761795;79;21124;-51
2021/05/08 11:23:50;;;;;;;3.37;2.10;;;;;;;8.35;95.51;99262.89;1765492;79;20245;-51
2021/05/08 11:26:30;;;;;;;2.10;1.70;;;;;;;8.21;96.88;99249.77;1765868;79;21040;-50
2021/05/08 11:29:26;;;;;;;3.55;1.40;;;;;;;8.08;96.87;99269.61;1760814;79;20981;-50
2021/05/08 11:31:59;;;;;;;3.27;1.50;;;;;;;8.04;96.48;99273.38;1767028;79;21672;-49
2021/05/08 11:34:35;;;;;;;1.47;1.37;;;;;;;8.08;96.72;99265.58;1818087;75;22819;-51
2021/05/08 11:37:12;;;;;;;1.42;1.27;;;;;;;8.03;97.82;99266.27;1769447;79;21656;-50
2021/05/08 11:39:47;;;;;;;1.82;1.22;;;;;;;7.99;97.31;99289.73;1758763;79;22206;-51
2021/05/08 11:42:18;;;;;;;2.00;1.37;;;;;;;7.98;97.23;99279.04;1758635;79;21585;-51